createdAt,value
2018-09-18T00:00:31.466Z,10.40
2018-09-18T00:03:00.188Z,9.63
2018-09-18T00:05:28.898Z,9.87
2018-09-18T00:07:57.590Z,9.33
2018-09-18T00:10:26.277Z,9.37
2018-09-18T00:12:55.049Z,9.40
2018-09-18T00:15:23.673Z,9.20
2018-09-18T00:17:52.342Z,9.50
2018-09-18T00:20:21.038Z,9.80
2018-09-18T00:22:49.799Z,9.17
2018-09-18T00:25:18.463Z,9.27
2018-09-18T00:27:47.182Z,9.17
2018-09-18T00:30:15.989Z,9.27
2018-09-18T00:32:44.625Z,9.43
2018-09-18T00:35:13.350Z,9.07
2018-09-18T00:37:41.967Z,8.97
2018-09-18T00:40:10.592Z,8.60
2018-09-18T00:42:39.285Z,8.53
2018-09-18T00:45:08.004Z,9.03
2018-09-18T00:47:36.700Z,8.03
2018-09-18T00:50:05.610Z,9.07
2018-09-18T00:52:34.371Z,8.93
2018-09-18T00:55:03.021Z,8.73
2018-09-18T00:57:31.771Z,8.60
2018-09-18T01:00:00.385Z,8.63
2018-09-18T01:02:29.436Z,8.43
2018-09-18T01:04:58.208Z,9.70
2018-09-18T01:07:26.953Z,8.47
2018-09-18T01:09:55.606Z,7.87
2018-09-18T01:12:24.385Z,8.40
2018-09-18T01:14:53.149Z,8.40
2018-09-18T01:17:21.843Z,6.93
2018-09-18T01:19:50.569Z,7.57
2018-09-18T01:22:19.263Z,7.23
2018-09-18T01:24:47.952Z,7.67
2018-09-18T01:27:16.626Z,6.90
2018-09-18T01:29:45.373Z,7.47
2018-09-18T01:32:14.029Z,7.23
2018-09-18T01:34:42.732Z,6.97
2018-09-18T01:37:11.411Z,7.27
2018-09-18T01:39:40.117Z,7.23
2018-09-18T01:42:08.810Z,7.03
2018-09-18T01:44:37.482Z,7.67
2018-09-18T01:47:06.176Z,7.70
2018-09-18T01:49:34.807Z,7.40
2018-09-18T01:52:03.460Z,7.03
2018-09-18T01:54:32.167Z,7.23
2018-09-18T01:57:00.886Z,7.47
2018-09-18T01:59:29.575Z,6.83
2018-09-18T02:01:58.207Z,7.53
2018-09-18T02:04:26.848Z,8.13
2018-09-18T02:06:55.475Z,7.53
2018-09-18T02:09:24.091Z,6.83
2018-09-18T02:11:52.707Z,7.07
2018-09-18T02:14:21.332Z,7.23
2018-09-18T02:16:49.971Z,7.17
2018-09-18T02:19:18.611Z,6.93
2018-09-18T02:21:47.232Z,6.50
2018-09-18T02:24:15.902Z,6.73
2018-09-18T02:26:44.584Z,6.70
2018-09-18T02:29:13.221Z,6.40
2018-09-18T02:31:41.860Z,6.90
2018-09-18T02:34:10.508Z,7.03
2018-09-18T02:36:39.156Z,7.00
2018-09-18T02:39:11.034Z,7.00
2018-09-18T02:41:39.716Z,7.07
2018-09-18T02:44:08.424Z,6.67
2018-09-18T02:46:37.121Z,6.73
2018-09-18T02:49:05.792Z,7.13
2018-09-18T02:51:34.447Z,6.60
2018-09-18T02:54:03.082Z,6.80
2018-09-18T02:56:31.706Z,6.20
2018-09-18T02:59:00.349Z,6.23
2018-09-18T03:01:29.022Z,6.20
2018-09-18T03:03:57.691Z,6.63
2018-09-18T03:06:26.351Z,5.80
2018-09-18T03:08:55.012Z,7.00
2018-09-18T03:11:23.668Z,6.67
2018-09-18T03:13:52.336Z,6.60
2018-09-18T03:16:20.984Z,6.13
2018-09-18T03:18:49.618Z,6.67
2018-09-18T03:21:18.305Z,6.10
2018-09-18T03:23:46.967Z,6.37
2018-09-18T03:26:15.630Z,6.17
2018-09-18T03:28:44.261Z,6.27
2018-09-18T03:31:12.947Z,6.20
2018-09-18T03:33:41.610Z,6.30
2018-09-18T03:36:10.242Z,6.90
2018-09-18T03:38:38.888Z,6.23
2018-09-18T03:41:07.696Z,6.50
2018-09-18T03:43:36.339Z,6.40
2018-09-18T03:46:04.934Z,6.23
2018-09-18T03:48:33.873Z,6.10
2018-09-18T03:51:02.544Z,6.30
2018-09-18T03:53:31.247Z,6.13
2018-09-18T03:55:59.872Z,5.80
2018-09-18T03:58:28.511Z,6.17
2018-09-18T04:00:57.148Z,6.77
2018-09-18T04:03:25.797Z,6.40
2018-09-18T04:05:54.462Z,6.50
2018-09-18T04:08:23.072Z,6.40
2018-09-18T04:10:51.707Z,7.00
2018-09-18T04:13:20.398Z,7.70
2018-09-18T04:15:49.503Z,6.63
2018-09-18T04:18:20.728Z,6.80
2018-09-18T04:20:49.371Z,6.77
2018-09-18T04:23:18.041Z,6.73
2018-09-18T04:25:46.646Z,6.80
2018-09-18T04:28:16.388Z,7.10
2018-09-18T04:30:45.112Z,6.40
2018-09-18T04:33:14.127Z,6.30
2018-09-18T04:35:42.828Z,6.20
2018-09-18T04:38:11.493Z,6.60
2018-09-18T04:40:40.174Z,6.40
2018-09-18T04:43:08.863Z,6.03
2018-09-18T04:45:37.807Z,6.57
2018-09-18T04:48:06.829Z,6.00
2018-09-18T04:50:36.045Z,6.30
2018-09-18T04:53:04.710Z,7.50
2018-09-18T04:55:33.350Z,6.20
2018-09-18T04:58:01.995Z,6.20
2018-09-18T05:00:30.639Z,5.90
2018-09-18T05:02:59.323Z,5.83
2018-09-18T05:05:28.011Z,6.57
2018-09-18T05:07:56.723Z,5.87
2018-09-18T05:10:25.368Z,6.43
2018-09-18T05:12:53.987Z,6.50
2018-09-18T05:15:22.640Z,6.60
2018-09-18T05:17:51.265Z,6.20
2018-09-18T05:20:19.947Z,5.93
2018-09-18T05:22:48.623Z,6.10
2018-09-18T05:25:17.269Z,6.33
2018-09-18T05:27:45.908Z,6.70
2018-09-18T05:30:14.544Z,6.20
2018-09-18T05:32:43.218Z,6.50
2018-09-18T05:35:11.888Z,6.43
2018-09-18T05:37:40.527Z,6.23
2018-09-18T05:40:09.177Z,7.43
2018-09-18T05:42:37.832Z,6.80
2018-09-18T05:45:06.604Z,6.87
2018-09-18T05:47:35.217Z,6.83
2018-09-18T05:50:04.194Z,6.23
2018-09-18T05:52:32.826Z,6.20
2018-09-18T05:55:01.504Z,7.33
2018-09-18T05:57:30.155Z,6.60
2018-09-18T05:59:58.919Z,7.30
2018-09-18T06:02:27.619Z,6.20
2018-09-18T06:04:56.335Z,6.70
2018-09-18T06:07:24.987Z,6.20
2018-09-18T06:09:53.693Z,6.10
2018-09-18T06:12:22.424Z,6.43
2018-09-18T06:14:51.044Z,8.00
2018-09-18T06:17:19.690Z,6.78
2018-09-18T06:19:48.312Z,6.78
2018-09-18T06:22:16.964Z,6.50
2018-09-18T06:24:45.642Z,6.22
2018-09-18T06:27:14.287Z,6.67
2018-09-18T06:29:43.358Z,5.80
2018-09-18T06:32:11.973Z,5.78
2018-09-18T06:34:40.875Z,5.75
2018-09-18T06:37:09.937Z,6.12
2018-09-18T06:39:38.628Z,5.50
2018-09-18T06:42:07.444Z,5.95
2018-09-18T06:44:36.202Z,5.83
2018-09-18T06:47:05.135Z,6.05
2018-09-18T06:49:33.789Z,6.10
2018-09-18T06:52:03.309Z,6.17
2018-09-18T06:54:31.995Z,6.28
2018-09-18T06:57:00.807Z,6.37
2018-09-18T06:59:29.474Z,6.03
2018-09-18T07:01:58.131Z,6.45
2018-09-18T07:04:27.071Z,5.95
2018-09-18T07:06:55.843Z,5.97
2018-09-18T07:09:24.523Z,5.60
2018-09-18T07:11:53.152Z,5.90
2018-09-18T07:14:21.844Z,6.00
2018-09-18T07:16:50.694Z,6.33
2018-09-18T07:19:19.755Z,6.22
2018-09-18T07:21:48.404Z,6.30
2018-09-18T07:24:17.088Z,6.15
2018-09-18T07:26:45.836Z,5.95
2018-09-18T07:29:14.514Z,5.85
2018-09-18T07:31:43.166Z,5.47
2018-09-18T07:34:11.973Z,5.37
2018-09-18T07:36:40.646Z,5.75
2018-09-18T07:39:11.028Z,6.17
2018-09-18T07:41:39.647Z,6.03
2018-09-18T07:44:08.668Z,5.78
2018-09-18T07:46:37.294Z,6.40
2018-09-18T07:49:06.260Z,6.45
2018-09-18T07:51:35.847Z,6.30
2018-09-18T07:54:05.455Z,5.35
2018-09-18T07:56:34.114Z,5.87
2018-09-18T07:59:03.165Z,5.95
2018-09-18T08:01:33.309Z,6.50
2018-09-18T08:04:01.955Z,6.22
2018-09-18T08:06:30.644Z,5.60
2018-09-18T08:08:59.282Z,7.47
2018-09-18T08:11:27.947Z,6.20
2018-09-18T08:13:56.658Z,7.00
2018-09-18T08:16:25.366Z,5.70
2018-09-18T08:18:54.186Z,5.72
2018-09-18T08:21:22.747Z,5.83
2018-09-18T08:23:51.435Z,6.50
2018-09-18T08:26:20.079Z,6.00
2018-09-18T08:28:48.764Z,6.45
2018-09-18T08:31:17.397Z,6.50
2018-09-18T08:33:46.046Z,6.30
2018-09-18T08:36:14.699Z,6.25
2018-09-18T08:38:43.403Z,7.00
2018-09-18T08:41:12.111Z,6.25
2018-09-18T08:43:40.795Z,6.50
2018-09-18T08:46:09.714Z,5.95
2018-09-18T08:48:42.439Z,6.10
2018-09-18T08:51:11.276Z,6.25
2018-09-18T08:53:40.029Z,7.00
2018-09-18T08:56:08.691Z,6.50
2018-09-18T08:58:37.411Z,7.12
2018-09-18T09:01:06.176Z,7.28
2018-09-18T09:03:34.807Z,7.30
2018-09-18T09:06:03.559Z,6.78
2018-09-18T09:08:32.607Z,8.43
2018-09-18T09:11:01.908Z,7.60
2018-09-18T09:13:30.588Z,7.83
2018-09-18T09:15:59.267Z,8.15
2018-09-18T09:18:28.005Z,7.55
2018-09-18T09:20:56.758Z,7.00
2018-09-18T09:23:25.428Z,8.50
2018-09-18T09:25:54.101Z,7.78
2018-09-18T09:28:22.793Z,8.20
2018-09-18T09:30:51.440Z,8.63
2018-09-18T09:33:20.433Z,8.73
2018-09-18T09:35:49.155Z,8.33
2018-09-18T09:38:17.846Z,7.58
2018-09-18T09:40:46.596Z,8.50
2018-09-18T09:43:15.291Z,8.78
2018-09-18T09:45:44.157Z,10.03
2018-09-18T09:48:12.904Z,9.25
2018-09-18T09:50:41.596Z,9.25
2018-09-18T09:53:10.290Z,9.43
2018-09-18T09:55:39.003Z,9.70
2018-09-18T09:58:07.739Z,9.18
2018-09-18T10:00:45.751Z,10.00
2018-09-18T10:03:15.059Z,9.80
2018-09-18T10:05:43.763Z,9.75
2018-09-18T10:08:12.542Z,9.80
2018-09-18T10:10:41.399Z,11.35
2018-09-18T10:13:10.001Z,9.93
2018-09-18T10:15:38.699Z,10.43
2018-09-18T10:18:07.353Z,11.68
2018-09-18T10:20:36.029Z,10.68
2018-09-18T10:23:04.863Z,10.75
2018-09-18T10:25:33.551Z,9.78
2018-09-18T10:28:02.280Z,9.93
2018-09-18T10:30:31.354Z,9.88
2018-09-18T10:33:00.049Z,10.60
2018-09-18T10:35:28.699Z,9.50
2018-09-18T10:37:57.402Z,9.53
2018-09-18T10:40:26.136Z,9.68
2018-09-18T10:42:54.827Z,9.90
2018-09-18T10:45:23.611Z,10.48
2018-09-18T10:47:52.738Z,9.48
2018-09-18T10:50:21.439Z,9.38
2018-09-18T10:52:50.140Z,9.05
2018-09-18T10:55:18.834Z,9.63
2018-09-18T10:57:47.585Z,9.73
2018-09-18T11:00:16.251Z,10.90
2018-09-18T11:02:45.190Z,9.10
2018-09-18T11:05:13.906Z,10.85
2018-09-18T11:07:42.688Z,9.28
2018-09-18T11:10:11.452Z,9.08
2018-09-18T11:12:40.070Z,8.93
2018-09-18T11:15:08.748Z,9.58
2018-09-18T11:17:37.423Z,9.15
2018-09-18T11:20:06.279Z,8.73
2018-09-18T11:22:35.336Z,8.40
2018-09-18T11:25:04.081Z,8.90
2018-09-18T11:27:32.807Z,8.78
2018-09-18T11:30:01.775Z,9.05
2018-09-18T11:32:30.490Z,9.48
2018-09-18T11:34:59.178Z,9.43
2018-09-18T11:37:27.869Z,9.53
2018-09-18T11:39:56.523Z,9.00
2018-09-18T11:42:25.207Z,9.70
2018-09-18T11:44:53.891Z,9.25
2018-09-18T11:47:22.572Z,9.68
2018-09-18T11:49:51.246Z,8.93
2018-09-18T11:52:19.920Z,9.70
2018-09-18T11:54:48.602Z,9.00
2018-09-18T11:57:17.332Z,8.93
2018-09-18T11:59:46.013Z,8.98
2018-09-18T12:02:14.733Z,8.63
2018-09-18T12:04:43.538Z,8.70
2018-09-18T12:10:32.640Z,7.92
2018-09-18T12:13:01.579Z,8.15
2018-09-18T12:15:30.240Z,8.78
2018-09-18T12:17:58.887Z,8.18
2018-09-18T12:20:27.543Z,7.97
2018-09-18T12:22:56.222Z,7.67
2018-09-18T12:25:24.900Z,7.80
2018-09-18T12:27:53.679Z,7.55
2018-09-18T12:30:22.432Z,7.80
2018-09-18T12:32:51.088Z,7.58
2018-09-18T12:35:19.777Z,8.43
2018-09-18T12:37:49.342Z,8.40
2018-09-18T12:40:18.013Z,8.70
2018-09-18T12:42:46.682Z,8.15
2018-09-18T12:45:15.354Z,8.35
2018-09-18T12:47:44.006Z,8.10
2018-09-18T12:50:12.956Z,7.80
2018-09-18T12:52:41.385Z,8.20
2018-09-18T12:55:10.009Z,8.20
2018-09-18T12:57:38.848Z,7.20
2018-09-18T13:00:09.110Z,7.17
2018-09-18T13:02:37.811Z,8.60
2018-09-18T13:05:06.537Z,7.67
2018-09-18T13:07:35.194Z,7.58
2018-09-18T13:10:04.011Z,7.28
2018-09-18T13:12:32.609Z,7.65
2018-09-18T13:15:01.271Z,7.78
2018-09-18T13:17:29.948Z,7.47
2018-09-18T13:19:58.638Z,7.95
2018-09-18T13:22:27.283Z,8.75
2018-09-18T13:24:55.978Z,7.85
2018-09-18T13:27:24.596Z,8.10
2018-09-18T13:29:53.248Z,8.25
2018-09-18T13:32:21.899Z,8.30
2018-09-18T13:34:50.549Z,8.68
2018-09-18T13:37:19.277Z,9.15
2018-09-18T13:39:47.957Z,9.10
2018-09-18T13:42:16.707Z,10.30
2018-09-18T13:44:45.367Z,9.38
2018-09-18T13:47:14.018Z,9.63
2018-09-18T13:49:42.716Z,9.50
2018-09-18T13:52:11.407Z,10.08
2018-09-18T13:54:40.104Z,9.00
2018-09-18T13:57:08.831Z,8.30
2018-09-18T13:59:37.585Z,8.88
2018-09-18T14:02:06.281Z,8.40
2018-09-18T14:04:34.984Z,8.40
2018-09-18T14:07:03.704Z,9.87
2018-09-18T14:09:32.472Z,8.53
2018-09-18T14:12:01.139Z,8.43
2018-09-18T14:14:29.774Z,7.83
2018-09-18T14:16:58.436Z,8.27
2018-09-18T14:19:27.117Z,9.07
2018-09-18T14:21:55.787Z,8.63
2018-09-18T14:24:24.483Z,8.70
2018-09-18T14:26:53.146Z,9.23
2018-09-18T14:29:21.811Z,9.93
2018-09-18T14:31:50.543Z,8.10
2018-09-18T14:34:19.231Z,9.50
2018-09-18T14:36:47.907Z,9.40
2018-09-18T14:39:16.608Z,9.17
2018-09-18T14:41:45.248Z,8.97
2018-09-18T14:44:13.883Z,10.30
2018-09-18T14:46:42.611Z,9.23
2018-09-18T14:49:11.294Z,8.43
2018-09-18T14:51:39.958Z,9.90
2018-09-18T14:54:08.774Z,8.13
2018-09-18T14:56:37.448Z,8.80
2018-09-18T14:59:06.248Z,8.83
2018-09-18T15:01:34.911Z,8.60
2018-09-18T15:04:03.590Z,8.43
2018-09-18T15:06:32.222Z,8.33
2018-09-18T15:09:00.875Z,8.90
2018-09-18T15:11:29.571Z,9.27
2018-09-18T15:13:58.193Z,8.37
2018-09-18T15:16:26.887Z,9.40
2018-09-18T15:18:55.578Z,8.53
2018-09-18T15:21:24.311Z,8.20
2018-09-18T15:23:52.975Z,9.67
2018-09-18T15:26:21.680Z,9.23
2018-09-18T15:28:50.367Z,11.30
2018-09-18T15:31:19.087Z,14.87
2018-09-18T15:33:47.928Z,12.43
2018-09-18T15:36:16.755Z,11.77
2018-09-18T15:38:45.482Z,9.13
2018-09-18T15:41:14.181Z,9.30
2018-09-18T15:43:42.862Z,8.90
2018-09-18T15:46:11.613Z,10.20
2018-09-18T15:48:40.307Z,10.23
2018-09-18T15:51:09.027Z,10.03
2018-09-18T15:53:37.674Z,10.13
2018-09-18T15:56:06.436Z,10.00
2018-09-18T15:58:35.063Z,13.03
2018-09-18T16:01:03.793Z,10.03
2018-09-18T16:03:33.228Z,12.40
2018-09-18T16:06:02.337Z,10.27
2018-09-18T16:12:18.187Z,9.60
2018-09-18T16:14:47.929Z,9.13
2018-09-18T16:17:27.451Z,9.93
2018-09-18T16:19:56.924Z,10.43
2018-09-18T16:22:26.168Z,9.30
2018-09-18T16:24:58.020Z,10.20
2018-09-18T16:27:27.193Z,9.07
2018-09-18T16:30:15.013Z,9.20
2018-09-18T16:32:46.633Z,8.63
2018-09-18T16:48:59.579Z,8.53
2018-09-18T16:51:37.148Z,8.30
2018-09-18T16:54:06.527Z,8.60
2018-09-18T16:56:35.584Z,9.17
2018-09-18T16:59:04.891Z,10.33
2018-09-18T17:01:37.104Z,9.80
2018-09-18T17:04:06.457Z,12.00
2018-09-18T17:06:35.293Z,13.60
2018-09-18T17:09:05.634Z,10.97
2018-09-18T17:11:35.686Z,9.97
2018-09-18T17:14:04.718Z,10.77
2018-09-18T17:16:33.792Z,10.57
2018-09-18T17:19:02.987Z,10.40
2018-09-18T17:21:32.035Z,10.80
2018-09-18T17:24:01.123Z,10.70
2018-09-18T17:26:30.159Z,11.43
2018-09-18T17:28:59.725Z,11.17
2018-09-18T17:31:29.796Z,11.17
2018-09-18T17:33:58.682Z,10.50
2018-09-18T17:36:28.035Z,10.27
2018-09-18T17:38:57.684Z,10.40
2018-09-18T17:41:27.018Z,10.83
2018-09-18T17:43:56.950Z,10.60
2018-09-18T17:46:26.635Z,11.07
2018-09-18T17:48:55.512Z,14.93
2018-09-18T17:51:24.420Z,15.57
2018-09-18T17:53:53.497Z,13.57
2018-09-18T17:56:23.125Z,12.43
2018-09-18T17:58:52.317Z,12.73
2018-09-18T18:01:21.552Z,12.50
2018-09-18T18:03:50.444Z,13.13
2018-09-18T18:06:19.642Z,12.33
2018-09-18T18:08:48.651Z,12.73
2018-09-18T18:11:18.362Z,12.57
2018-09-18T18:13:47.169Z,13.83
2018-09-18T18:16:16.198Z,13.00
2018-09-18T18:18:45.167Z,12.63
2018-09-18T18:21:13.995Z,12.80
2018-09-18T18:23:42.974Z,14.47
2018-09-18T18:26:12.599Z,15.27
2018-09-18T18:28:41.602Z,20.10
2018-09-18T18:31:10.837Z,27.23
2018-09-18T18:33:39.638Z,21.60
2018-09-18T18:36:08.621Z,20.30
2018-09-18T18:38:37.625Z,15.47
2018-09-18T18:41:06.557Z,16.73
2018-09-18T18:43:35.543Z,16.90
2018-09-18T18:46:05.372Z,16.73
2018-09-18T18:48:34.308Z,16.80
2018-09-18T18:51:03.180Z,14.23
2018-09-18T18:53:32.013Z,13.03
2018-09-18T18:56:00.711Z,11.97
2018-09-18T18:58:29.419Z,12.70
2018-09-18T19:00:58.061Z,13.53
2018-09-18T19:03:26.775Z,13.90
2018-09-18T19:05:55.434Z,12.40
2018-09-18T19:08:24.067Z,13.97
2018-09-18T19:10:52.747Z,16.50
2018-09-18T19:13:21.436Z,14.07
2018-09-18T19:15:50.105Z,13.93
2018-09-18T19:18:18.782Z,15.50
2018-09-18T19:20:47.455Z,13.03
2018-09-18T19:23:16.158Z,14.23
2018-09-18T19:25:44.826Z,14.57
2018-09-18T19:28:13.508Z,14.77
2018-09-18T19:30:42.145Z,13.33
2018-09-18T19:33:10.922Z,14.33
2018-09-18T19:35:39.537Z,13.37
2018-09-18T19:38:08.184Z,14.37
2018-09-18T19:40:36.849Z,14.37
2018-09-18T19:43:05.527Z,13.60
2018-09-18T19:45:34.184Z,13.30
2018-09-18T19:48:02.945Z,13.47
2018-09-18T19:50:31.590Z,12.70
2018-09-18T19:53:00.222Z,12.60
2018-09-18T19:55:28.941Z,12.53
2018-09-18T19:57:57.627Z,11.03
2018-09-18T20:00:26.352Z,11.33
2018-09-18T20:02:55.133Z,11.37
2018-09-18T20:05:23.809Z,11.30
2018-09-18T20:07:52.533Z,11.37
2018-09-18T20:10:21.295Z,15.50
2018-09-18T20:12:50.139Z,10.77
2018-09-18T20:15:18.831Z,10.70
2018-09-18T20:17:47.441Z,12.47
2018-09-18T20:20:16.159Z,13.30
2018-09-18T20:22:44.860Z,14.30
2018-09-18T20:25:13.544Z,15.03
2018-09-18T20:27:42.472Z,14.80
2018-09-18T20:30:12.569Z,13.90
2018-09-18T20:32:41.310Z,12.23
2018-09-18T20:35:09.947Z,10.67
2018-09-18T20:37:38.759Z,10.60
2018-09-18T20:40:07.412Z,10.37
2018-09-18T20:42:36.597Z,10.33
2018-09-18T20:45:05.388Z,10.27
2018-09-18T20:47:34.208Z,10.40
2018-09-18T20:50:03.495Z,10.43
2018-09-18T20:52:32.291Z,10.17
2018-09-18T20:55:01.006Z,10.53
2018-09-18T20:57:29.669Z,10.43
2018-09-18T20:59:58.367Z,10.67
2018-09-18T21:02:27.041Z,11.07
2018-09-18T21:04:55.749Z,11.20
2018-09-18T21:07:24.414Z,11.13
2018-09-18T21:09:53.072Z,10.80
2018-09-18T21:12:21.724Z,10.80
2018-09-18T21:14:50.387Z,11.17
2018-09-18T21:17:33.772Z,10.63
2018-09-18T21:20:02.417Z,11.33
2018-09-18T21:22:31.042Z,11.90
2018-09-18T21:25:12.024Z,11.20
2018-09-18T21:27:41.111Z,11.63
2018-09-18T21:30:13.729Z,11.67
2018-09-18T21:32:42.392Z,11.70
2018-09-18T21:35:11.114Z,11.63
2018-09-18T21:37:40.088Z,11.43
2018-09-18T21:40:08.815Z,12.20
2018-09-18T21:42:37.483Z,12.17
2018-09-18T21:45:06.170Z,12.80
2018-09-18T21:47:34.906Z,13.07
2018-09-18T21:50:03.610Z,11.93
2018-09-18T21:52:32.273Z,11.87
2018-09-18T21:55:00.940Z,11.37
2018-09-18T21:57:29.596Z,11.10
2018-09-18T21:59:58.282Z,10.73
2018-09-18T22:02:26.950Z,11.27
2018-09-18T22:04:55.601Z,11.33
2018-09-18T22:07:24.283Z,11.77
2018-09-18T22:09:52.938Z,11.00
2018-09-18T22:12:21.653Z,10.83
2018-09-18T22:14:50.304Z,10.83
2018-09-18T22:17:18.988Z,11.07
2018-09-18T22:19:47.660Z,10.53
2018-09-18T22:22:16.335Z,10.43
2018-09-18T22:24:45.081Z,9.90
2018-09-18T22:27:13.725Z,10.30
2018-09-18T22:29:42.421Z,11.00
2018-09-18T22:32:11.122Z,10.57
2018-09-18T22:34:39.820Z,11.43
2018-09-18T22:37:08.503Z,11.40
2018-09-18T22:39:37.213Z,10.73
2018-09-18T22:42:05.877Z,10.63
2018-09-18T22:44:34.534Z,9.63
2018-09-18T22:47:03.223Z,9.20
2018-09-18T22:49:31.863Z,8.50
2018-09-18T22:52:00.555Z,8.03
2018-09-18T22:54:29.266Z,7.20
2018-09-18T22:56:57.875Z,7.50
2018-09-18T22:59:26.584Z,7.27
2018-09-18T23:01:55.283Z,6.87
2018-09-18T23:04:33.055Z,6.80
2018-09-18T23:07:18.488Z,6.70
2018-09-18T23:10:05.349Z,6.63
2018-09-18T23:12:57.355Z,6.90
2018-09-18T23:17:10.403Z,6.37
2018-09-18T23:19:45.955Z,6.20
2018-09-18T23:22:14.640Z,5.80
2018-09-18T23:24:43.287Z,6.33
2018-09-18T23:27:11.939Z,6.00
2018-09-18T23:29:40.665Z,5.73
2018-09-18T23:32:09.313Z,6.03
2018-09-18T23:34:37.959Z,5.90
2018-09-18T23:52:03.466Z,6.00
2018-09-18T23:54:32.116Z,5.30
2018-09-18T23:57:00.750Z,4.87
2018-09-18T23:59:29.425Z,5.90
